Time;durP1;ratioP1;P1;durP2;ratioP2;P2;SDS_P1;SDS_P2;PMS_P1;PMS_P2;Temp;Humidity;BMP_temperature;BMP_pressure;BME280_temperature;BME280_humidity;BME280_pressure;Samples;Min_cycle;Max_cycle;Signal;HPM_P1;HPM_P2
2021/05/21 00:01:06;;;;;;;11.57;10.07;;;11.20;90.00;;;;;;4906768;29;20232;-83
2021/05/21 00:03:35;;;;;;;12.00;10.40;;;11.30;89.90;;;;;;4908649;29;20237;-85
2021/05/21 00:06:06;;;;;;;11.97;10.77;;;11.20;89.70;;;;;;4915819;29;20322;-84
2021/05/21 00:08:45;;;;;;;13.77;11.43;;;11.10;89.70;;;;;;4925408;29;20232;-84
2021/05/21 00:11:42;;;;;;;12.63;10.53;;;11.10;89.80;;;;;;4911476;29;20346;-85
2021/05/21 00:36:00;;;;;;;13.73;11.27;;;10.40;91.70;;;;;;4950847;28;20739;-84
2021/05/21 00:38:56;;;;;;;12.80;11.50;;;10.20;92.10;;;;;;4950444;28;20978;-84
2021/05/21 00:41:26;;;;;;;12.40;11.20;;;10.20;92.60;;;;;;4941046;28;20312;-85
2021/05/21 00:43:56;;;;;;;12.27;10.87;;;10.30;92.30;;;;;;4947550;28;20209;-84
2021/05/21 00:46:25;;;;;;;12.53;11.23;;;10.40;91.90;;;;;;4934248;28;20713;-82
2021/05/21 00:48:54;;;;;;;11.57;10.50;;;10.40;91.90;;;;;;4944573;28;20240;-83
2021/05/21 00:51:41;;;;;;;14.27;11.13;;;10.40;91.70;;;;;;4951564;28;20273;-83
2021/05/21 00:54:15;;;;;;;12.37;11.07;;;10.50;91.50;;;;;;4947680;28;20245;-83
2021/05/21 00:56:45;;;;;;;12.57;11.27;;;10.60;91.10;;;;;;4966708;28;20414;-84
2021/05/21 00:59:14;;;;;;;11.63;10.53;;;10.60;90.90;;;;;;4956455;28;20436;-84
2021/05/21 01:02:07;;;;;;;12.57;10.73;;;10.60;90.70;;;;;;4940767;28;20765;-84
2021/05/21 01:04:38;;;;;;;12.77;11.47;;;10.70;90.80;;;;;;4967519;28;20208;-85
2021/05/21 01:07:08;;;;;;;12.63;11.37;;;10.70;90.70;;;;;;4995701;28;20217;-84
2021/05/21 01:10:17;;;;;;;13.20;11.87;;;10.70;90.60;;;;;;4992517;28;20205;-82
2021/05/21 01:12:51;;;;;;;12.20;10.90;;;10.80;90.50;;;;;;4986773;28;20195;-83
2021/05/21 01:38:53;;;;;;;13.40;11.70;;;10.30;92.50;;;;;;5010777;28;20192;-85
2021/05/21 01:41:33;;;;;;;12.43;11.13;;;10.30;92.30;;;;;;4988817;28;20320;-84
2021/05/21 01:44:06;;;;;;;12.27;10.90;;;10.40;92.00;;;;;;4989874;28;20228;-84
2021/05/21 01:47:06;;;;;;;12.40;11.20;;;10.50;91.60;;;;;;4990567;28;20208;-85
2021/05/21 01:49:35;;;;;;;12.93;10.90;;;10.50;91.30;;;;;;4993268;28;20343;-85
2021/05/21 01:55:15;;;;;;;11.23;10.13;;;10.70;90.80;;;;;;5005034;28;20260;-83
2021/05/21 01:58:05;;;;;;;13.13;11.03;;;10.70;90.70;;;;;;5012829;28;20204;-84
2021/05/21 02:09:43;;;;;;;12.93;10.40;;;10.60;91.00;;;;;;4989648;28;20608;-84
2021/05/21 02:12:13;;;;;;;11.20;10.10;;;10.60;91.20;;;;;;4999268;28;20589;-83
2021/05/21 02:15:04;;;;;;;12.50;11.20;;;10.50;91.40;;;;;;4997474;28;20227;-84
2021/05/21 02:17:47;;;;;;;12.43;11.13;;;10.50;91.30;;;;;;4989770;28;20199;-84
2021/05/21 02:34:16;;;;;;;12.03;10.73;;;10.10;91.60;;;;;;4990112;28;20428;-83
2021/05/21 02:37:16;;;;;;;12.73;11.43;;;9.90;92.10;;;;;;4968305;28;20235;-85
2021/05/21 02:39:54;;;;;;;13.40;12.00;;;10.00;93.50;;;;;;4967233;28;20196;-84
2021/05/21 02:42:36;;;;;;;14.50;12.50;;;10.00;93.40;;;;;;4977555;28;20219;-83
2021/05/21 02:45:27;;;;;;;14.10;12.60;;;10.00;93.40;;;;;;4974931;28;20238;-83
2021/05/21 02:52:26;;;;;;;13.47;11.97;;;10.20;92.70;;;;;;4973949;28;20200;-85
2021/05/21 02:55:02;;;;;;;13.47;12.07;;;10.10;92.90;;;;;;4979541;28;20208;-84
2021/05/21 02:57:41;;;;;;;13.73;11.90;;;9.90;93.00;;;;;;4986510;28;20229;-84
2021/05/21 03:01:16;;;;;;;13.90;12.57;;;9.90;93.00;;;;;;4987567;28;20211;-84
2021/05/21 03:03:48;;;;;;;13.30;11.97;;;10.00;92.80;;;;;;4976266;28;20513;-84
2021/05/21 03:06:40;;;;;;;14.10;12.70;;;10.10;92.90;;;;;;4981943;28;20241;-84
2021/05/21 03:09:11;;;;;;;14.50;12.50;;;10.20;92.70;;;;;;4969191;28;20737;-83
2021/05/21 03:11:39;;;;;;;13.70;12.03;;;10.30;92.50;;;;;;4974380;28;20219;-83
2021/05/21 03:14:08;;;;;;;14.53;12.80;;;10.20;92.10;;;;;;4977146;28;20207;-83
2021/05/21 03:17:16;;;;;;;16.80;14.67;;;10.40;91.80;;;;;;4988295;28;20212;-83
2021/05/21 03:19:51;;;;;;;15.83;14.03;;;10.50;91.60;;;;;;4995549;28;20181;-83
2021/05/21 03:22:19;;;;;;;17.53;14.93;;;10.40;91.60;;;;;;4994346;28;20258;-85
2021/05/21 03:24:56;;;;;;;16.07;13.97;;;10.50;91.60;;;;;;4991174;28;20212;-85
2021/05/21 03:27:25;;;;;;;17.53;13.70;;;10.40;91.50;;;;;;4983992;28;20206;-83
2021/05/21 03:30:06;;;;;;;17.30;14.60;;;10.50;91.50;;;;;;4983937;28;20299;-83
2021/05/21 03:32:34;;;;;;;16.63;14.13;;;10.50;91.60;;;;;;4981999;28;21122;-83
2021/05/21 03:35:39;;;;;;;17.70;14.77;;;10.50;91.50;;;;;;4980660;28;20199;-83
2021/05/21 03:38:08;;;;;;;17.00;15.30;;;10.50;91.60;;;;;;4993864;28;21050;-82
2021/05/21 03:41:11;;;;;;;15.80;14.30;;;10.60;91.50;;;;;;4961941;28;20209;-85
2021/05/21 03:43:41;;;;;;;16.83;14.80;;;10.60;91.70;;;;;;4956232;28;20486;-84
2021/05/21 03:46:10;;;;;;;18.93;15.10;;;10.60;91.90;;;;;;4956849;28;20276;-84
2021/05/21 03:49:16;;;;;;;16.87;15.03;;;10.60;91.60;;;;;;4957649;28;20237;-85
2021/05/21 03:51:45;;;;;;;17.97;15.07;;;10.70;91.60;;;;;;4952136;28;20570;-84
2021/05/21 03:54:24;;;;;;;17.23;14.70;;;10.80;91.30;;;;;;4955158;28;20203;-86
2021/05/21 03:56:56;;;;;;;17.23;14.20;;;10.80;91.40;;;;;;4959974;28;20283;-84
2021/05/21 03:59:26;;;;;;;16.13;14.50;;;10.90;91.30;;;;;;4962470;28;21049;-85
2021/05/21 04:02:01;;;;;;;17.53;15.30;;;10.90;91.20;;;;;;4951906;28;20210;-84
2021/05/21 04:04:38;;;;;;;16.20;14.47;;;11.00;91.20;;;;;;4961604;28;20475;-83
2021/05/21 04:07:15;;;;;;;16.93;15.13;;;11.00;91.00;;;;;;4967645;28;20763;-85
2021/05/21 04:09:52;;;;;;;17.03;14.90;;;11.10;91.00;;;;;;4958980;28;20698;-84
2021/05/21 04:12:25;;;;;;;17.23;15.53;;;11.20;90.70;;;;;;4965141;28;20234;-83
2021/05/21 04:14:54;;;;;;;14.87;13.33;;;11.30;90.70;;;;;;4974317;28;20207;-84
2021/05/21 04:17:29;;;;;;;16.33;14.67;;;11.40;90.50;;;;;;4965295;28;20202;-84
2021/05/21 04:20:37;;;;;;;18.07;15.07;;;11.40;90.10;;;;;;4978390;28;20196;-85
2021/05/21 04:23:05;;;;;;;15.43;13.80;;;11.50;90.10;;;;;;4947113;28;20210;-85
2021/05/21 04:25:33;;;;;;;15.67;14.07;;;11.50;90.10;;;;;;4959204;28;20209;-86
2021/05/21 04:28:03;;;;;;;16.27;14.13;;;11.50;90.00;;;;;;4958245;28;20675;-84
2021/05/21 04:30:32;;;;;;;16.20;14.60;;;11.50;90.00;;;;;;4957889;28;20250;-87
2021/05/21 04:33:02;;;;;;;17.00;14.70;;;11.50;90.00;;;;;;4964579;28;20210;-85
2021/05/21 04:35:39;;;;;;;17.87;14.40;;;11.50;90.00;;;;;;4967905;28;20220;-86
2021/05/21 04:38:08;;;;;;;15.43;13.87;;;11.60;90.00;;;;;;4963773;28;20202;-85
2021/05/21 04:40:36;;;;;;;14.67;13.27;;;11.60;90.00;;;;;;4956116;28;20691;-87
2021/05/21 04:43:05;;;;;;;15.80;13.93;;;11.70;89.70;;;;;;4967440;28;20204;-86
2021/05/21 04:45:33;;;;;;;16.40;14.00;;;11.90;89.90;;;;;;4973532;28;20225;-84
2021/05/21 04:48:02;;;;;;;15.70;13.70;;;12.00;89.10;;;;;;4971341;28;20212;-84
2021/05/21 04:50:30;;;;;;;15.33;13.03;;;12.20;88.70;;;;;;4966626;28;20197;-84
2021/05/21 04:52:58;;;;;;;14.30;12.80;;;12.30;88.30;;;;;;4973504;28;20216;-85
2021/05/21 04:55:27;;;;;;;14.77;13.27;;;12.40;88.20;;;;;;4966325;28;20236;-84
2021/05/21 04:57:56;;;;;;;14.63;13.03;;;12.40;88.10;;;;;;4957248;28;20252;-86
2021/05/21 05:00:25;;;;;;;16.03;12.90;;;12.50;87.70;;;;;;4958401;28;20216;-83
2021/05/21 05:02:54;;;;;;;14.43;12.93;;;12.50;87.50;;;;;;4955390;28;20231;-87
2021/05/21 05:05:26;;;;;;;12.97;11.67;;;12.40;87.70;;;;;;4965549;28;20237;-83
2021/05/21 05:07:54;;;;;;;17.60;11.93;;;12.30;87.50;;;;;;4969299;28;20201;-83
2021/05/21 05:10:22;;;;;;;12.50;11.30;;;12.30;87.40;;;;;;4971002;28;20235;-83
2021/05/21 05:12:52;;;;;;;15.13;11.90;;;12.40;87.30;;;;;;4955777;28;20228;-85
2021/05/21 05:15:21;;;;;;;12.53;11.23;;;12.50;87.20;;;;;;4950341;28;20210;-82
2021/05/21 05:17:51;;;;;;;14.33;11.27;;;12.60;86.90;;;;;;4963920;28;20675;-84
2021/05/21 05:20:22;;;;;;;14.83;11.13;;;12.60;86.70;;;;;;4953987;28;20651;-84
2021/05/21 05:22:52;;;;;;;13.50;11.53;;;12.90;86.80;;;;;;4958068;28;20737;-85
2021/05/21 05:25:22;;;;;;;11.77;10.30;;;13.00;86.50;;;;;;4955526;28;20497;-85
2021/05/21 05:27:52;;;;;;;13.13;11.53;;;13.00;86.40;;;;;;4961371;28;20664;-84
2021/05/21 05:30:22;;;;;;;12.67;11.13;;;13.00;86.40;;;;;;4956411;28;20229;-87
2021/05/21 05:32:51;;;;;;;14.20;12.07;;;12.90;86.60;;;;;;4956515;28;20578;-83
2021/05/21 05:35:19;;;;;;;12.93;10.93;;;12.90;86.70;;;;;;4940894;28;20686;-82
2021/05/21 05:37:48;;;;;;;13.43;10.93;;;12.90;86.30;;;;;;4947273;28;20233;-87
2021/05/21 05:40:19;;;;;;;12.60;11.23;;;12.90;86.20;;;;;;4949346;28;20213;-86
2021/05/21 05:42:47;;;;;;;12.23;10.97;;;13.00;86.00;;;;;;4949164;28;20205;-88
2021/05/21 05:45:16;;;;;;;14.13;10.80;;;13.10;85.80;;;;;;4962689;28;20211;-86
2021/05/21 05:47:47;;;;;;;11.30;10.17;;;13.40;86.10;;;;;;4970193;28;20190;-86
2021/05/21 05:50:16;;;;;;;17.40;10.53;;;13.60;86.10;;;;;;4974451;28;20233;-85
2021/05/21 05:52:45;;;;;;;10.93;9.73;;;14.00;85.30;;;;;;4966324;28;20222;-87
2021/05/21 05:55:15;;;;;;;10.80;9.70;;;14.20;84.50;;;;;;4970554;28;20235;-86
2021/05/21 05:57:44;;;;;;;10.60;9.50;;;14.20;84.10;;;;;;4962575;28;20221;-86
2021/05/21 06:00:13;;;;;;;11.40;10.27;;;14.20;83.80;;;;;;4967409;28;20231;-86
2021/05/21 06:02:42;;;;;;;10.67;9.57;;;14.10;83.70;;;;;;4969799;28;20204;-85
2021/05/21 06:05:11;;;;;;;10.43;9.47;;;14.00;83.70;;;;;;4934314;28;20237;-81
2021/05/21 06:07:40;;;;;;;11.00;9.90;;;14.00;83.90;;;;;;4932272;28;20202;-79
2021/05/21 06:10:10;;;;;;;11.70;8.80;;;14.00;83.90;;;;;;4939584;28;20237;-81
2021/05/21 06:12:38;;;;;;;10.87;9.40;;;14.10;83.50;;;;;;4933846;28;20298;-80
2021/05/21 06:15:07;;;;;;;11.27;9.33;;;14.10;83.70;;;;;;4923358;28;20268;-82
2021/05/21 06:17:36;;;;;;;9.20;7.83;;;14.20;83.80;;;;;;4927669;28;20237;-80
2021/05/21 06:20:05;;;;;;;9.70;7.73;;;14.40;82.80;;;;;;4927960;28;20919;-80
2021/05/21 06:22:32;;;;;;;9.77;8.60;;;14.60;82.70;;;;;;4922393;28;20801;-81
2021/05/21 06:25:06;;;;;;;7.90;7.13;;;14.70;82.80;;;;;;4925057;28;20709;-83
2021/05/21 06:27:34;;;;;;;9.47;8.23;;;14.80;82.10;;;;;;4936192;28;20777;-80
2021/05/21 06:30:07;;;;;;;8.10;7.27;;;14.80;82.50;;;;;;4942557;28;20440;-80
2021/05/21 06:32:35;;;;;;;9.00;8.00;;;14.90;82.30;;;;;;4946452;28;20837;-82
2021/05/21 06:35:03;;;;;;;8.17;7.37;;;15.10;82.40;;;;;;4943699;28;20201;-80
2021/05/21 06:37:31;;;;;;;9.37;7.40;;;15.30;82.10;;;;;;4944520;28;20408;-82
2021/05/21 06:40:10;;;;;;;8.07;7.27;;;15.50;81.80;;;;;;4922818;28;20303;-81
2021/05/21 06:42:39;;;;;;;8.77;7.20;;;15.70;81.70;;;;;;4918901;28;20263;-81
2021/05/21 06:45:08;;;;;;;7.47;6.77;;;15.80;81.70;;;;;;4939680;28;20630;-82
2021/05/21 06:47:35;;;;;;;8.07;6.60;;;15.90;81.40;;;;;;4932641;28;20281;-82
2021/05/21 06:50:05;;;;;;;7.20;6.50;;;15.90;81.40;;;;;;4943378;28;20236;-85
2021/05/21 06:52:33;;;;;;;6.90;6.00;;;16.00;80.90;;;;;;4926939;28;20669;-81
2021/05/21 06:55:01;;;;;;;7.10;5.90;;;16.00;80.20;;;;;;4925999;28;20606;-81
2021/05/21 06:57:30;;;;;;;6.27;5.67;;;15.80;80.10;;;;;;4935753;28;20209;-82
2021/05/21 06:59:58;;;;;;;6.83;5.97;;;15.70;80.40;;;;;;4950735;28;20217;-82
2021/05/21 07:02:29;;;;;;;8.30;6.20;;;15.70;80.50;;;;;;4940688;28;20222;-81
2021/05/21 07:04:58;;;;;;;7.07;6.33;;;15.80;80.80;;;;;;4937712;28;20212;-82
2021/05/21 07:07:31;;;;;;;7.17;6.10;;;15.70;80.70;;;;;;4939193;28;20217;-83
2021/05/21 07:10:00;;;;;;;6.23;5.60;;;15.70;80.60;;;;;;4936207;28;20237;-81
2021/05/21 07:12:30;;;;;;;6.47;5.03;;;16.00;80.60;;;;;;4927271;28;20343;-82
2021/05/21 07:14:59;;;;;;;6.57;5.40;;;16.10;80.60;;;;;;4940770;28;20962;-81
2021/05/21 07:17:27;;;;;;;7.20;4.70;;;16.30;80.30;;;;;;4936450;28;20219;-82
2021/05/21 07:19:55;;;;;;;4.83;4.33;;;16.50;79.70;;;;;;4926371;28;20224;-84
2021/05/21 07:22:23;;;;;;;6.37;4.97;;;16.90;79.60;;;;;;4928591;28;20241;-80
2021/05/21 07:24:52;;;;;;;7.10;4.80;;;16.80;78.40;;;;;;4926428;28;20283;-83
2021/05/21 07:27:20;;;;;;;4.90;4.50;;;16.90;78.60;;;;;;4931573;28;20217;-84
2021/05/21 07:29:49;;;;;;;5.57;4.17;;;17.00;78.50;;;;;;4924652;28;20731;-81
2021/05/21 07:32:17;;;;;;;4.53;3.77;;;16.90;78.50;;;;;;4934443;28;20198;-83
2021/05/21 07:34:45;;;;;;;4.30;3.27;;;17.00;77.80;;;;;;4930961;28;20747;-80
2021/05/21 07:37:13;;;;;;;5.10;3.27;;;17.10;77.20;;;;;;4948693;28;20244;-83
2021/05/21 07:39:41;;;;;;;3.87;2.60;;;17.20;77.30;;;;;;4947621;28;20683;-80
2021/05/21 07:42:09;;;;;;;2.70;2.50;;;17.30;75.50;;;;;;4920028;28;20209;-81
2021/05/21 07:44:37;;;;;;;2.90;2.70;;;17.50;74.20;;;;;;4949403;28;20213;-79
2021/05/21 07:47:06;;;;;;;3.83;2.50;;;17.50;73.60;;;;;;4940888;28;21279;-82
2021/05/21 07:49:34;;;;;;;2.87;2.23;;;17.40;73.00;;;;;;4937930;28;20925;-81
2021/05/21 07:52:02;;;;;;;2.17;1.97;;;17.50;72.80;;;;;;4924764;28;20245;-82
2021/05/21 07:54:30;;;;;;;3.10;2.40;;;17.70;71.70;;;;;;4931872;28;20213;-83
2021/05/21 07:56:58;;;;;;;2.50;2.27;;;17.90;71.20;;;;;;4913555;28;20401;-81
2021/05/21 07:59:26;;;;;;;2.60;1.83;;;17.90;69.50;;;;;;4938365;28;20201;-86
2021/05/21 08:01:55;;;;;;;2.63;1.97;;;17.60;67.50;;;;;;4949854;28;20944;-85
2021/05/21 08:04:24;;;;;;;2.77;1.90;;;17.30;66.50;;;;;;4952172;28;20237;-85
2021/05/21 08:06:53;;;;;;;1.83;1.73;;;17.30;66.60;;;;;;4948539;28;20349;-86
2021/05/21 08:09:22;;;;;;;2.20;2.00;;;17.30;67.00;;;;;;4961851;28;20269;-87
2021/05/21 08:11:50;;;;;;;1.90;1.80;;;17.50;67.00;;;;;;4955805;28;20197;-87
2021/05/21 08:14:21;;;;;;;2.10;1.90;;;17.80;66.80;;;;;;4956446;28;20244;-86
2021/05/21 08:16:50;;;;;;;1.83;1.70;;;17.80;67.20;;;;;;4945795;28;20241;-81
2021/05/21 08:19:30;;;;;;;1.70;1.53;;;17.60;64.30;;;;;;4946578;28;20213;-84
2021/05/21 08:21:59;;;;;;;1.60;1.43;;;17.60;63.80;;;;;;4927712;28;20241;-85
2021/05/21 08:24:27;;;;;;;1.63;1.30;;;17.40;62.70;;;;;;4928885;28;20892;-84
2021/05/21 08:26:56;;;;;;;1.77;1.67;;;17.50;62.60;;;;;;4944944;28;20208;-83
2021/05/21 08:29:25;;;;;;;4.50;1.80;;;17.50;63.10;;;;;;4946858;28;20221;-86
2021/05/21 08:31:54;;;;;;;2.17;1.80;;;17.60;62.50;;;;;;4942050;28;20431;-83
2021/05/21 08:34:22;;;;;;;2.87;1.67;;;17.60;62.60;;;;;;4957752;28;20206;-84
2021/05/21 08:36:53;;;;;;;1.87;1.70;;;17.40;62.80;;;;;;4948119;28;20243;-86
2021/05/21 08:39:22;;;;;;;2.10;1.70;;;17.60;62.60;;;;;;4947125;28;20296;-85
2021/05/21 08:41:53;;;;;;;2.20;1.90;;;17.90;63.60;;;;;;4959973;28;20213;-86
2021/05/21 08:44:24;;;;;;;2.47;1.90;;;18.00;62.70;;;;;;4966952;28;20433;-87
2021/05/21 08:46:53;;;;;;;2.60;1.73;;;18.10;63.50;;;;;;4956901;28;20216;-81
2021/05/21 08:49:23;;;;;;;1.57;1.47;;;18.10;62.40;;;;;;4958932;28;20192;-82
2021/05/21 08:51:53;;;;;;;1.70;1.60;;;18.20;62.30;;;;;;4928880;28;20217;-86
2021/05/21 08:54:34;;;;;;;2.73;1.63;;;18.20;62.20;;;;;;4933011;28;20472;-87
2021/05/21 08:57:06;;;;;;;2.10;1.67;;;18.40;61.70;;;;;;4931679;28;20546;-83
2021/05/21 08:59:34;;;;;;;2.40;1.77;;;18.70;61.10;;;;;;4935591;28;20209;-86
2021/05/21 09:02:05;;;;;;;2.37;1.67;;;18.80;60.90;;;;;;4932355;28;20232;-83
2021/05/21 09:04:46;;;;;;;3.37;1.70;;;18.60;59.00;;;;;;4933500;28;20213;-80
2021/05/21 09:07:21;;;;;;;2.07;1.50;;;18.40;59.30;;;;;;4937188;28;20506;-83
2021/05/21 09:09:50;;;;;;;3.70;1.47;;;18.30;59.80;;;;;;4937683;28;20232;-83
2021/05/21 09:12:20;;;;;;;1.80;1.70;;;18.30;59.70;;;;;;4933848;28;20928;-82
2021/05/21 09:15:09;;;;;;;2.50;1.73;;;18.30;59.20;;;;;;4935893;28;20585;-83
2021/05/21 09:17:49;;;;;;;1.67;1.57;;;18.10;59.00;;;;;;4934400;28;20213;-81
2021/05/21 09:20:26;;;;;;;2.67;1.60;;;18.00;59.30;;;;;;4935170;28;20198;-81
2021/05/21 09:23:09;;;;;;;1.70;1.60;;;17.90;58.50;;;;;;4933673;28;20279;-81
2021/05/21 09:25:43;;;;;;;3.47;1.80;;;17.70;59.00;;;;;;4952943;28;20451;-82
2021/05/21 09:28:39;;;;;;;4.87;1.77;;;17.70;59.10;;;;;;4929512;28;20248;-84
2021/05/21 09:31:12;;;;;;;1.50;1.40;;;18.00;59.00;;;;;;4894989;28;20249;-84
2021/05/21 09:33:41;;;;;;;1.90;1.50;;;18.40;59.10;;;;;;4926094;28;20528;-83
2021/05/21 09:36:10;;;;;;;2.33;1.60;;;18.60;57.60;;;;;;4941301;28;20212;-85
2021/05/21 09:38:50;;;;;;;1.57;1.40;;;18.90;58.00;;;;;;4932328;28;21278;-82
2021/05/21 09:41:47;;;;;;;2.60;1.60;;;19.20;56.90;;;;;;4940253;28;20221;-83
2021/05/21 09:44:15;;;;;;;5.37;1.87;;;19.50;56.90;;;;;;4932322;28;20482;-83
2021/05/21 09:46:45;;;;;;;2.47;1.60;;;19.60;57.30;;;;;;4937199;28;20217;-85
2021/05/21 09:49:30;;;;;;;4.17;2.00;;;19.40;55.40;;;;;;4939361;28;20743;-81
2021/05/21 09:52:02;;;;;;;1.90;1.60;;;19.30;56.70;;;;;;4935285;28;20557;-83
2021/05/21 09:54:49;;;;;;;4.60;1.80;;;19.40;57.20;;;;;;4936082;28;20217;-84
2021/05/21 09:57:29;;;;;;;1.73;1.63;;;19.30;54.80;;;;;;4943280;28;20212;-84
2021/05/21 09:59:57;;;;;;;1.67;1.57;;;19.00;54.70;;;;;;4936833;28;20428;-85
2021/05/21 10:02:27;;;;;;;1.87;1.70;;;18.60;53.00;;;;;;4927196;28;20205;-84
2021/05/21 10:04:57;;;;;;;2.00;1.60;;;18.60;54.70;;;;;;4942733;28;20303;-84
2021/05/21 10:07:26;;;;;;;1.67;1.50;;;18.60;53.50;;;;;;4951641;28;20209;-84
2021/05/21 10:09:55;;;;;;;1.97;1.50;;;18.60;53.40;;;;;;4936288;28;20478;-84
2021/05/21 10:12:24;;;;;;;2.03;1.70;;;18.50;53.90;;;;;;4932015;28;20209;-84
2021/05/21 10:14:53;;;;;;;2.10;1.60;;;18.60;55.20;;;;;;4944588;28;20208;-84
2021/05/21 10:17:23;;;;;;;1.90;1.70;;;18.60;55.20;;;;;;4943045;28;20209;-84
2021/05/21 10:19:54;;;;;;;2.50;1.57;;;18.80;54.90;;;;;;4934502;28;20361;-81
2021/05/21 10:22:26;;;;;;;2.90;1.60;;;18.70;55.70;;;;;;4948075;28;20218;-81
2021/05/21 10:25:02;;;;;;;2.63;2.10;;;18.70;55.90;;;;;;4934127;28;20215;-83
2021/05/21 10:27:33;;;;;;;2.00;1.90;;;18.80;55.80;;;;;;4963233;28;28201;-83
2021/05/21 10:30:04;;;;;;;2.10;1.90;;;18.90;57.00;;;;;;4963249;28;20463;-85
2021/05/21 10:32:37;;;;;;;2.33;1.93;;;19.10;56.30;;;;;;4947704;28;20247;-85
2021/05/21 10:35:17;;;;;;;2.70;1.70;;;19.00;55.30;;;;;;4952520;28;20209;-84
2021/05/21 10:37:47;;;;;;;2.30;1.70;;;18.90;55.50;;;;;;4950018;28;20449;-86
2021/05/21 10:40:25;;;;;;;2.57;1.80;;;19.00;55.60;;;;;;4938991;28;20211;-84
2021/05/21 10:42:53;;;;;;;2.13;1.93;;;19.10;56.40;;;;;;4934135;28;20193;-84
2021/05/21 10:45:24;;;;;;;2.80;2.27;;;19.20;55.70;;;;;;4936449;28;20472;-82
2021/05/21 10:47:58;;;;;;;3.30;2.10;;;19.20;55.70;;;;;;4933818;28;20220;-83
2021/05/21 10:50:33;;;;;;;4.13;2.23;;;19.20;57.20;;;;;;4932580;28;20219;-83
2021/05/21 10:53:04;;;;;;;1.90;1.70;;;19.40;56.40;;;;;;4932989;28;20291;-82
2021/05/21 10:55:55;;;;;;;2.30;2.10;;;19.30;54.80;;;;;;4948802;28;20264;-86
2021/05/21 10:58:29;;;;;;;3.07;2.00;;;19.50;56.70;;;;;;4964075;28;20200;-85
2021/05/21 11:01:16;;;;;;;2.90;2.20;;;19.80;55.00;;;;;;4949011;28;20205;-85
2021/05/21 11:04:03;;;;;;;2.90;1.90;;;19.80;55.80;;;;;;4959818;28;20486;-86
2021/05/21 11:06:42;;;;;;;5.13;2.10;;;19.90;56.00;;;;;;4939583;28;20208;-83
2021/05/21 11:09:12;;;;;;;3.30;2.10;;;19.90;55.60;;;;;;4933534;28;20215;-85
2021/05/21 11:11:54;;;;;;;2.77;2.00;;;19.80;56.40;;;;;;4932245;28;20348;-85
2021/05/21 11:14:29;;;;;;;3.47;1.90;;;19.70;53.00;;;;;;4931867;28;20399;-84
2021/05/21 11:17:00;;;;;;;2.50;1.90;;;19.70;53.40;;;;;;4958781;28;20253;-86
2021/05/21 11:19:32;;;;;;;4.10;2.27;;;19.80;53.50;;;;;;4965572;28;20438;-86
2021/05/21 11:22:07;;;;;;;5.53;2.10;;;19.60;53.70;;;;;;4931535;28;20554;-85
2021/05/21 11:24:38;;;;;;;4.07;2.30;;;19.90;55.40;;;;;;4930766;28;20218;-82
2021/05/21 11:27:12;;;;;;;2.93;2.23;;;20.20;55.20;;;;;;4946085;28;20210;-87
2021/05/21 11:29:46;;;;;;;2.53;2.33;;;20.40;55.60;;;;;;4943594;28;20762;-86
2021/05/21 11:32:16;;;;;;;2.50;2.30;;;20.30;54.20;;;;;;4930234;28;20228;-83
2021/05/21 11:34:45;;;;;;;2.70;2.50;;;20.30;54.70;;;;;;4927006;28;20500;-81
2021/05/21 11:37:19;;;;;;;3.00;2.40;;;20.30;54.80;;;;;;4928256;28;20224;-80
2021/05/21 11:39:51;;;;;;;2.53;1.77;;;20.40;54.50;;;;;;4933778;28;20211;-83
2021/05/21 11:42:21;;;;;;;2.50;1.97;;;20.40;51.90;;;;;;4927466;28;20216;-80
2021/05/21 11:44:50;;;;;;;3.57;2.40;;;20.30;50.90;;;;;;4932942;28;20220;-83
2021/05/21 11:47:24;;;;;;;2.40;1.90;;;20.30;50.90;;;;;;4923645;28;20209;-82
2021/05/21 11:49:54;;;;;;;3.03;1.97;;;20.20;52.40;;;;;;4930116;28;20635;-83
2021/05/21 11:52:23;;;;;;;2.23;2.03;;;20.40;52.60;;;;;;4928298;28;20523;-84
2021/05/21 11:54:52;;;;;;;3.83;2.20;;;20.30;52.30;;;;;;4937875;28;20751;-86
2021/05/21 11:57:24;;;;;;;5.43;2.30;;;20.20;52.50;;;;;;4935194;28;20213;-84
2021/05/21 11:59:54;;;;;;;2.20;2.00;;;20.10;52.20;;;;;;4940423;28;20247;-83
2021/05/21 12:02:23;;;;;;;2.47;1.83;;;20.10;51.50;;;;;;4935496;28;20205;-84
2021/05/21 12:04:51;;;;;;;2.80;1.77;;;20.10;52.10;;;;;;4944032;28;20601;-84
2021/05/21 12:07:22;;;;;;;1.83;1.70;;;20.20;52.70;;;;;;4951351;28;20200;-84
2021/05/21 12:09:59;;;;;;;1.70;1.60;;;20.20;50.40;;;;;;4947795;28;20197;-82
2021/05/21 12:12:29;;;;;;;2.23;2.03;;;20.00;51.90;;;;;;4949170;28;20749;-83
2021/05/21 12:15:10;;;;;;;2.87;2.10;;;19.80;52.20;;;;;;4940280;28;20579;-84
2021/05/21 12:17:45;;;;;;;3.17;2.10;;;19.70;52.20;;;;;;4935729;28;20215;-84
2021/05/21 12:20:15;;;;;;;2.77;2.00;;;19.70;52.10;;;;;;4943042;28;20290;-82
2021/05/21 12:22:58;;;;;;;2.63;1.90;;;19.80;51.80;;;;;;4952597;28;20189;-84
2021/05/21 12:25:29;;;;;;;2.30;2.10;;;20.20;51.90;;;;;;4939957;28;20217;-80
2021/05/21 12:27:58;;;;;;;2.93;1.77;;;20.40;51.90;;;;;;4927553;28;20206;-80
2021/05/21 12:30:27;;;;;;;2.00;1.90;;;20.30;51.30;;;;;;4951430;28;20240;-83
2021/05/21 12:32:56;;;;;;;3.97;2.27;;;20.30;51.40;;;;;;4949577;28;20237;-82
2021/05/21 12:35:35;;;;;;;2.53;2.00;;;20.30;52.50;;;;;;4958611;28;20216;-81
2021/05/21 12:38:04;;;;;;;3.40;1.90;;;20.60;53.40;;;;;;4957691;28;20264;-82
2021/05/21 12:40:33;;;;;;;2.40;1.63;;;20.90;51.40;;;;;;4938238;28;20215;-80
2021/05/21 12:43:08;;;;;;;2.40;1.80;;;21.20;51.30;;;;;;4937900;28;20209;-80
2021/05/21 12:45:53;;;;;;;2.90;1.92;;;21.60;51.30;;;;;;4936631;28;20205;-78
2021/05/21 12:48:31;;;;;;;3.17;1.90;;;21.60;50.30;;;;;;4939000;28;20669;-79
2021/05/21 12:51:14;;;;;;;2.67;2.03;;;21.70;49.00;;;;;;4938213;28;20209;-81
2021/05/21 12:53:42;;;;;;;1.75;1.65;;;21.90;49.20;;;;;;4934259;28;20485;-80
2021/05/21 12:56:26;;;;;;;1.90;1.80;;;21.80;48.90;;;;;;4943157;28;20209;-80
2021/05/21 12:58:55;;;;;;;1.90;1.80;;;21.80;48.10;;;;;;4947637;28;20288;-83
2021/05/21 13:01:23;;;;;;;3.97;1.83;;;21.90;48.00;;;;;;4941639;28;20296;-83
2021/05/21 13:03:54;;;;;;;1.70;1.60;;;22.00;49.10;;;;;;4932412;28;20508;-83
2021/05/21 13:06:26;;;;;;;2.45;1.90;;;22.20;48.40;;;;;;4953851;28;20233;-82
2021/05/21 13:08:55;;;;;;;2.45;1.80;;;22.00;48.10;;;;;;4943132;28;20312;-83
2021/05/21 13:11:23;;;;;;;2.50;2.00;;;21.50;47.90;;;;;;4942418;28;20256;-82
2021/05/21 13:14:01;;;;;;;2.63;2.00;;;21.30;48.90;;;;;;4952682;28;20206;-84
2021/05/21 13:16:41;;;;;;;3.03;1.90;;;21.30;49.10;;;;;;4966866;28;20206;-83
2021/05/21 13:19:09;;;;;;;2.85;2.15;;;21.60;48.60;;;;;;4969820;28;20503;-83
2021/05/21 13:21:39;;;;;;;2.15;1.98;;;22.10;49.40;;;;;;4964479;28;20512;-81
2021/05/21 13:24:09;;;;;;;2.15;1.70;;;22.10;48.60;;;;;;4952687;28;20347;-83
2021/05/21 13:26:49;;;;;;;1.77;1.67;;;22.00;47.30;;;;;;4959652;28;20219;-83
2021/05/21 13:29:20;;;;;;;1.73;1.60;;;21.90;47.40;;;;;;4952151;28;20204;-82
2021/05/21 13:31:49;;;;;;;2.70;1.70;;;22.00;46.50;;;;;;4947111;28;20235;-82
2021/05/21 13:34:18;;;;;;;2.20;1.52;;;22.00;47.20;;;;;;4940591;28;20209;-79
2021/05/21 13:36:46;;;;;;;1.70;1.60;;;21.70;47.20;;;;;;4940820;28;20220;-81
2021/05/21 13:39:14;;;;;;;2.33;1.77;;;21.40;48.20;;;;;;4948898;28;20268;-82
2021/05/21 13:41:42;;;;;;;1.70;1.60;;;21.50;47.90;;;;;;4931478;28;20213;-83
2021/05/21 13:44:10;;;;;;;1.75;1.65;;;21.60;47.50;;;;;;4947423;28;20478;-84
2021/05/21 13:46:39;;;;;;;1.67;1.58;;;21.60;47.00;;;;;;4946510;28;20261;-80
2021/05/21 13:49:07;;;;;;;2.28;1.77;;;21.90;46.80;;;;;;4946358;28;20571;-82
2021/05/21 13:51:36;;;;;;;2.55;1.90;;;22.00;47.20;;;;;;4956259;28;20267;-83
2021/05/21 13:54:05;;;;;;;3.20;1.60;;;22.20;47.10;;;;;;4934261;28;21249;-83
2021/05/21 13:56:49;;;;;;;3.13;1.70;;;22.30;46.30;;;;;;4942870;28;20257;-83
2021/05/21 13:59:18;;;;;;;1.80;1.40;;;22.30;46.30;;;;;;4939504;28;20208;-83
2021/05/21 14:01:47;;;;;;;2.08;1.63;;;22.50;45.80;;;;;;4945297;28;20205;-82
2021/05/21 14:04:17;;;;;;;2.83;1.80;;;22.60;46.40;;;;;;4939707;28;20216;-81
2021/05/21 14:06:46;;;;;;;2.33;1.73;;;23.70;45.80;;;;;;4949943;28;20970;-83
2021/05/21 14:09:15;;;;;;;1.83;1.73;;;24.70;44.70;;;;;;4942932;28;20630;-83
2021/05/21 14:11:45;;;;;;;2.50;1.70;;;25.30;45.80;;;;;;4947686;28;20232;-84
2021/05/21 14:14:14;;;;;;;2.00;1.80;;;25.70;44.90;;;;;;4943121;28;20243;-85
2021/05/21 14:16:43;;;;;;;4.65;2.03;;;25.90;44.00;;;;;;4951549;28;20620;-84
2021/05/21 14:19:14;;;;;;;6.22;1.70;;;26.30;43.60;;;;;;4941409;28;20476;-81
2021/05/21 14:21:43;;;;;;;2.45;2.10;;;26.70;43.40;;;;;;4940223;28;20312;-83
2021/05/21 14:24:13;;;;;;;2.05;1.77;;;26.70;42.90;;;;;;4944635;28;20714;-85
2021/05/21 14:26:43;;;;;;;2.67;1.77;;;26.90;42.70;;;;;;4965195;28;20196;-83